Terminal Aerodrome Forecast
Issued by NWS

Current Version | Previous Version | Graphics & Text | Print | Product List | Glossary On
Versions: 1 2 3 4 5 6 7 8 9 10 11 12 13 14 15 16 17 18
000
FTUS41 KPBZ 221720
TAFMGW
TAF
KMGW 221720Z 2218/2318 35007KT P6SM -SHRA SCT026 OVC035
     FM230200 35003KT 4SM BR BKN020
     FM231500 36004KT P6SM SCT025 BKN050=

USA.gov is the U.S. government's official web portal to all federal, state and local government web resources and services.